USCGC Tern — NEOT — position and weather

sailwx.info

Track history (hours):
 
Tides and Currents Weather Stations Pressure Air Temp Water Temp Dewpoint Dewpoint Depression Visibility Wind Speed Wind Dir Waves Ship Positions

USCGC Tern

Last reported at 2015-Apr-02 20:23 UTC. Time now 2015-Apr-28 16:01 UTC.
Position N 37°49' W 122°22'.
Warning: this ship's position is 25 days out of date.

Length 26 m; draft 12 m.

Type: Military. MMSI: 366999711.

Date/timePositionNaut miles runAvg speedWind from/ knotsBaromVisibWave heightAir tempDewpointWater temp
2015-Apr-02 20:23N 37°49' W 122°22'3 3.3
2015-Apr-02 19:33N 37°49' W 122°25'3 3.4
2015-Apr-02 18:33N 37°52' W 122°25'3 3.1
2015-Apr-02 17:26N 37°54' W 122°28'0 0.0
2015-Apr-02 16:32N 37°54' W 122°28'2 2.3
2015-Apr-02 15:33N 37°53' W 122°25'1111.2
2015-Apr-02 14:33N 37°43' W 122°19'8 8.2
2015-Apr-02 13:33N 37°50' W 122°24'3 2.8
2015-Apr-02 12:33N 37°49' W 122°27'1 0.8
2015-Apr-02 11:33N 37°49' W 122°26'  
2015-Mar-31 02:13N 37°54' W 122°28'0 0.0
2015-Mar-31 01:31N 37°54' W 122°28'0 0.0
2015-Mar-31 00:33N 37°54' W 122°28'3 2.6
2015-Mar-30 23:33N 37°52' W 122°26'0 0.0
2015-Mar-30 22:33N 37°52' W 122°26'3 0.7
2015-Mar-30 18:33N 37°49' W 122°26'3 3.3
2015-Mar-30 17:33N 37°49' W 122°22'0 0.0
2015-Mar-30 16:28N 37°49' W 122°22'0 0.0
2015-Mar-30 15:30N 37°49' W 122°22'0 0.0
2015-Mar-30 14:30N 37°49' W 122°22'0 0.0
2015-Mar-30 13:31N 37°49' W 122°22'0 0.0
2015-Mar-30 12:31N 37°49' W 122°22'0 0.0
2015-Mar-30 11:31N 37°49' W 122°22'0 0.0
2015-Mar-30 10:33N 37°49' W 122°22'0 0.0
2015-Mar-30 09:33N 37°49' W 122°22'0 0.0
2015-Mar-30 08:33N 37°49' W 122°22'0 0.0
2015-Mar-30 07:33N 37°49' W 122°22'0 0.0
2015-Mar-30 06:31N 37°49' W 122°22'0 0.0
2015-Mar-30 05:28N 37°49' W 122°22'0 0.0
2015-Mar-30 04:31N 37°49' W 122°22'0 0.0
2015-Mar-30 03:28N 37°49' W 122°22'0 0.0
2015-Mar-30 02:31N 37°49' W 122°22'0 0.0
2015-Mar-30 01:34N 37°49' W 122°22'0 0.0
2015-Mar-30 00:33N 37°49' W 122°22'0 0.0
2015-Mar-29 23:33N 37°49' W 122°22'0 0.0
2015-Mar-29 22:30N 37°49' W 122°22'0 0.0
2015-Mar-29 21:33N 37°49' W 122°22'0 0.0
2015-Mar-29 20:31N 37°49' W 122°22'0 0.0
2015-Mar-29 19:31N 37°49' W 122°22'0 0.0
2015-Mar-29 18:31N 37°49' W 122°22'0 0.0
2015-Mar-29 17:28N 37°49' W 122°22'0 0.0
2015-Mar-29 16:33N 37°49' W 122°22'0 0.0
2015-Mar-29 15:30N 37°49' W 122°22'0 0.0
2015-Mar-29 14:33N 37°49' W 122°22'0 0.0
2015-Mar-29 13:31N 37°49' W 122°22'0 0.0
2015-Mar-29 12:31N 37°49' W 122°22'0 0.0
2015-Mar-29 11:31N 37°49' W 122°22'0 0.0
2015-Mar-29 10:31N 37°49' W 122°22'0 0.0
2015-Mar-29 09:31N 37°49' W 122°22'0 0.0
2015-Mar-29 08:33N 37°49' W 122°22'0 0.0
2015-Mar-29 07:33N 37°49' W 122°22'0 0.0
2015-Mar-29 06:33N 37°49' W 122°22'0 0.0
2015-Mar-29 05:31N 37°49' W 122°22'0 0.0
2015-Mar-29 04:31N 37°49' W 122°22'0 0.0
2015-Mar-29 03:31N 37°49' W 122°22'0 0.0
2015-Mar-29 02:31N 37°49' W 122°22'0 0.0
2015-Mar-29 01:34N 37°49' W 122°22'0 0.0
2015-Mar-29 00:30N 37°49' W 122°22'0 0.0
2015-Mar-28 23:33N 37°49' W 122°22'0 0.0
2015-Mar-28 22:30N 37°49' W 122°22'0 0.0
2015-Mar-28 21:31N 37°49' W 122°22'0 0.0
2015-Mar-28 20:31N 37°49' W 122°22'0 0.0
2015-Mar-28 19:31N 37°49' W 122°22'0 0.0
2015-Mar-28 18:28N 37°49' W 122°22'0 0.0
2015-Mar-28 17:31N 37°49' W 122°22'0 0.0
2015-Mar-28 16:33N 37°49' W 122°22'0 0.0
2015-Mar-28 15:31N 37°49' W 122°22'0 0.0
2015-Mar-28 14:31N 37°49' W 122°22'0 0.0
2015-Mar-28 13:31N 37°49' W 122°22'0 0.0
2015-Mar-28 12:34N 37°49' W 122°22'0 0.0
2015-Mar-28 11:30N 37°49' W 122°22'0 0.0
2015-Mar-28 10:30N 37°49' W 122°22'0 0.0
2015-Mar-28 09:33N 37°49' W 122°22'0 0.0
2015-Mar-28 08:28N 37°49' W 122°22'0 0.0
2015-Mar-28 07:31N 37°49' W 122°22'0 0.0
2015-Mar-28 06:25N 37°49' W 122°22'0 0.0
2015-Mar-28 05:31N 37°49' W 122°22'0 0.0
2015-Mar-28 04:34N 37°49' W 122°22'0 0.0
2015-Mar-28 03:33N 37°49' W 122°22'0 0.0
2015-Mar-28 02:30N 37°49' W 122°22'0 0.0
2015-Mar-28 01:28N 37°49' W 122°22'0 0.0
2015-Mar-28 00:30N 37°49' W 122°22'0 0.0
2015-Mar-27 23:31N 37°49' W 122°22'0 0.0
2015-Mar-27 22:31N 37°49' W 122°22'0 0.0
2015-Mar-27 21:31N 37°49' W 122°22'0 0.0
2015-Mar-27 20:31N 37°49' W 122°22'0 0.0
2015-Mar-27 19:27N 37°49' W 122°22'0 0.0
2015-Mar-27 18:31N 37°49' W 122°22'0 0.0
2015-Mar-27 17:06N 37°49' W 122°22'0 0.0
2015-Mar-27 16:28N 37°49' W 122°22'0 0.0
2015-Mar-27 15:30N 37°49' W 122°22'0 0.0
2015-Mar-27 14:28N 37°49' W 122°22'0 0.0
2015-Mar-27 13:31N 37°49' W 122°22'0 0.0
2015-Mar-27 12:31N 37°49' W 122°22'0 0.0
2015-Mar-27 11:03N 37°49' W 122°22'0 0.0
2015-Mar-27 10:28N 37°49' W 122°22'0 0.0
2015-Mar-27 09:22N 37°49' W 122°22'0 0.0
2015-Mar-27 08:22N 37°49' W 122°22'0 0.0
2015-Mar-27 07:30N 37°49' W 122°22'0 0.0
2015-Mar-27 06:30N 37°49' W 122°22'0 0.0
2015-Mar-27 05:31N 37°49' W 122°22'0 0.0
2015-Mar-27 04:33N 37°49' W 122°22'0 0.0
2015-Mar-27 03:33N 37°49' W 122°22'0 0.0
2015-Mar-27 02:33N 37°49' W 122°22'0 0.0
2015-Mar-27 01:31N 37°49' W 122°22'0 0.0
2015-Mar-27 00:31N 37°49' W 122°22'0 0.0
2015-Mar-26 23:31N 37°49' W 122°22'0 0.0
2015-Mar-26 22:31N 37°49' W 122°22'0 0.0
2015-Mar-26 21:28N 37°49' W 122°22'0 0.0
2015-Mar-26 20:33N 37°49' W 122°22'0 0.0
2015-Mar-26 19:30N 37°49' W 122°22'0 0.0
2015-Mar-26 18:30N 37°49' W 122°22'0 0.0
2015-Mar-26 17:25N 37°49' W 122°22'0 0.0
2015-Mar-26 16:31N 37°49' W 122°22'0 0.0
2015-Mar-26 15:28N 37°49' W 122°22'0 0.0
2015-Mar-26 14:25N 37°49' W 122°22'0 0.0
2015-Mar-26 13:21N 37°49' W 122°22'0 0.0
2015-Mar-26 12:33N 37°49' W 122°22'0 0.0
2015-Mar-26 11:28N 37°49' W 122°22'0 0.0
2015-Mar-26 10:31N 37°49' W 122°22'0 0.0
2015-Mar-26 09:28N 37°49' W 122°22'0 0.0
2015-Mar-26 08:10N 37°49' W 122°22'0 0.0
2015-Mar-26 07:28N 37°49' W 122°22'0 0.0
2015-Mar-26 06:31N 37°49' W 122°22'0 0.0
2015-Mar-26 05:31N 37°49' W 122°22'0 0.0
2015-Mar-26 04:31N 37°49' W 122°22'0 0.0
2015-Mar-26 03:28N 37°49' W 122°22'0 0.0
2015-Mar-26 02:10N 37°49' W 122°22'0 0.0
2015-Mar-26 01:33N 37°49' W 122°22'0 0.0
2015-Mar-26 00:25N 37°49' W 122°22'0 0.0
2015-Mar-25 23:33N 37°49' W 122°22'0 0.0
2015-Mar-25 22:28N 37°49' W 122°22'0 0.0
2015-Mar-25 21:28N 37°49' W 122°22'0 0.0
2015-Mar-25 20:22N 37°49' W 122°22'0 0.0
2015-Mar-25 19:22N 37°49' W 122°22'0 0.0
2015-Mar-25 18:31N 37°49' W 122°22'0 0.0
2015-Mar-25 17:31N 37°49' W 122°22'0 0.0
2015-Mar-25 16:28N 37°49' W 122°22'0 0.0
2015-Mar-25 15:28N 37°49' W 122°22'0 0.0
2015-Mar-25 14:28N 37°49' W 122°22'0 0.0
2015-Mar-25 13:33N 37°49' W 122°22'0 0.0
2015-Mar-25 12:31N 37°49' W 122°22'0 0.0
2015-Mar-25 11:28N 37°49' W 122°22'0 0.0
2015-Mar-25 10:31N 37°49' W 122°22'0 0.0
2015-Mar-25 09:31N 37°49' W 122°22'0 0.0
2015-Mar-25 08:28N 37°49' W 122°22'0 0.0
2015-Mar-25 07:31N 37°49' W 122°22'0 0.0
2015-Mar-25 06:31N 37°49' W 122°22'0 0.0
2015-Mar-25 05:31N 37°49' W 122°22'0 0.0
2015-Mar-25 04:33N 37°49' W 122°22'0 0.0
2015-Mar-25 03:33N 37°49' W 122°22'0 0.0
2015-Mar-25 02:30N 37°49' W 122°22'0 0.0
2015-Mar-25 01:31N 37°49' W 122°22'0 0.0
2015-Mar-25 00:31N 37°49' W 122°22'0 0.0
2015-Mar-24 23:22N 37°49' W 122°22'0 0.0
2015-Mar-24 22:28N 37°49' W 122°22'0 0.0
2015-Mar-24 21:31N 37°49' W 122°22'0 0.0
2015-Mar-24 20:31N 37°49' W 122°22'0 0.0
2015-Mar-24 19:33N 37°49' W 122°22'0 0.0
2015-Mar-24 18:31N 37°49' W 122°22'0 0.0
2015-Mar-24 17:30N 37°49' W 122°22'0 0.0
2015-Mar-24 16:31N 37°49' W 122°22'0 0.0
2015-Mar-24 15:31N 37°49' W 122°22'0 0.0
2015-Mar-24 14:31N 37°49' W 122°22'0 0.0
2015-Mar-24 13:31N 37°49' W 122°22'0 0.0
2015-Mar-24 12:28N 37°49' W 122°22'0 0.0
2015-Mar-24 11:28N 37°49' W 122°22'0 0.0
2015-Mar-24 10:33N 37°49' W 122°22'0 0.0
2015-Mar-24 09:28N 37°49' W 122°22'0 0.0
2015-Mar-24 08:31N 37°49' W 122°22'0 0.0
2015-Mar-24 07:31N 37°49' W 122°22'0 0.0
2015-Mar-24 06:31N 37°49' W 122°22'0 0.0
2015-Mar-24 05:28N 37°49' W 122°22'0 0.0
2015-Mar-24 04:28N 37°49' W 122°22'0 0.0
2015-Mar-24 03:22N 37°49' W 122°22'0 0.0
2015-Mar-24 02:31N 37°49' W 122°22'0 0.0
2015-Mar-24 01:31N 37°49' W 122°22'0 0.0
2015-Mar-24 00:28N 37°49' W 122°22'0 0.0
2015-Mar-23 23:31N 37°49' W 122°22'0 0.0
2015-Mar-23 22:30N 37°49' W 122°22'0 0.0
2015-Mar-23 21:30N 37°49' W 122°22'0 0.0
2015-Mar-23 20:31N 37°49' W 122°22'  
Track history (hours):
 
Tides and Currents Weather Stations Pressure Air Temp Water Temp Dewpoint Dewpoint Depression Visibility Wind Speed Wind Dir Waves Ship Positions

USCGC Tern

Last reported at 2015-Apr-02 20:23 UTC. Time now 2015-Apr-28 16:01 UTC.
Position N 37°49' W 122°22'.
Warning: this ship's position is 25 days out of date.

Length 26 m; draft 12 m.

Type: Military. MMSI: 366999711.

Date/timePositionNaut miles runAvg speedWind from/ knotsBaromVisibWave heightAir tempDewpointWater temp
2015-Apr-02 20:23N 37°49' W 122°22'3 3.3
2015-Apr-02 19:33N 37°49' W 122°25'3 3.4
2015-Apr-02 18:33N 37°52' W 122°25'3 3.1
2015-Apr-02 17:26N 37°54' W 122°28'0 0.0
2015-Apr-02 16:32N 37°54' W 122°28'2 2.3
2015-Apr-02 15:33N 37°53' W 122°25'1111.2
2015-Apr-02 14:33N 37°43' W 122°19'8 8.2
2015-Apr-02 13:33N 37°50' W 122°24'3 2.8
2015-Apr-02 12:33N 37°49' W 122°27'1 0.8
2015-Apr-02 11:33N 37°49' W 122°26'  
2015-Mar-31 02:13N 37°54' W 122°28'0 0.0
2015-Mar-31 01:31N 37°54' W 122°28'0 0.0
2015-Mar-31 00:33N 37°54' W 122°28'3 2.6
2015-Mar-30 23:33N 37°52' W 122°26'0 0.0
2015-Mar-30 22:33N 37°52' W 122°26'3 0.7
2015-Mar-30 18:33N 37°49' W 122°26'3 3.3
2015-Mar-30 17:33N 37°49' W 122°22'0 0.0
2015-Mar-30 16:28N 37°49' W 122°22'0 0.0
2015-Mar-30 15:30N 37°49' W 122°22'0 0.0
2015-Mar-30 14:30N 37°49' W 122°22'0 0.0
2015-Mar-30 13:31N 37°49' W 122°22'0 0.0
2015-Mar-30 12:31N 37°49' W 122°22'0 0.0
2015-Mar-30 11:31N 37°49' W 122°22'0 0.0
2015-Mar-30 10:33N 37°49' W 122°22'0 0.0
2015-Mar-30 09:33N 37°49' W 122°22'0 0.0
2015-Mar-30 08:33N 37°49' W 122°22'0 0.0
2015-Mar-30 07:33N 37°49' W 122°22'0 0.0
2015-Mar-30 06:31N 37°49' W 122°22'0 0.0
2015-Mar-30 05:28N 37°49' W 122°22'0 0.0
2015-Mar-30 04:31N 37°49' W 122°22'0 0.0
2015-Mar-30 03:28N 37°49' W 122°22'0 0.0
2015-Mar-30 02:31N 37°49' W 122°22'0 0.0
2015-Mar-30 01:34N 37°49' W 122°22'0 0.0
2015-Mar-30 00:33N 37°49' W 122°22'0 0.0
2015-Mar-29 23:33N 37°49' W 122°22'0 0.0
2015-Mar-29 22:30N 37°49' W 122°22'0 0.0
2015-Mar-29 21:33N 37°49' W 122°22'0 0.0
2015-Mar-29 20:31N 37°49' W 122°22'0 0.0
2015-Mar-29 19:31N 37°49' W 122°22'0 0.0
2015-Mar-29 18:31N 37°49' W 122°22'0 0.0
2015-Mar-29 17:28N 37°49' W 122°22'0 0.0
2015-Mar-29 16:33N 37°49' W 122°22'0 0.0
2015-Mar-29 15:30N 37°49' W 122°22'0 0.0
2015-Mar-29 14:33N 37°49' W 122°22'0 0.0
2015-Mar-29 13:31N 37°49' W 122°22'0 0.0
2015-Mar-29 12:31N 37°49' W 122°22'0 0.0
2015-Mar-29 11:31N 37°49' W 122°22'0 0.0
2015-Mar-29 10:31N 37°49' W 122°22'0 0.0
2015-Mar-29 09:31N 37°49' W 122°22'0 0.0
2015-Mar-29 08:33N 37°49' W 122°22'0 0.0
2015-Mar-29 07:33N 37°49' W 122°22'0 0.0
2015-Mar-29 06:33N 37°49' W 122°22'0 0.0
2015-Mar-29 05:31N 37°49' W 122°22'0 0.0
2015-Mar-29 04:31N 37°49' W 122°22'0 0.0
2015-Mar-29 03:31N 37°49' W 122°22'0 0.0
2015-Mar-29 02:31N 37°49' W 122°22'0 0.0
2015-Mar-29 01:34N 37°49' W 122°22'0 0.0
2015-Mar-29 00:30N 37°49' W 122°22'0 0.0
2015-Mar-28 23:33N 37°49' W 122°22'0 0.0
2015-Mar-28 22:30N 37°49' W 122°22'0 0.0
2015-Mar-28 21:31N 37°49' W 122°22'0 0.0
2015-Mar-28 20:31N 37°49' W 122°22'0 0.0
2015-Mar-28 19:31N 37°49' W 122°22'0 0.0
2015-Mar-28 18:28N 37°49' W 122°22'0 0.0
2015-Mar-28 17:31N 37°49' W 122°22'0 0.0
2015-Mar-28 16:33N 37°49' W 122°22'0 0.0
2015-Mar-28 15:31N 37°49' W 122°22'0 0.0
2015-Mar-28 14:31N 37°49' W 122°22'0 0.0
2015-Mar-28 13:31N 37°49' W 122°22'0 0.0
2015-Mar-28 12:34N 37°49' W 122°22'0 0.0
2015-Mar-28 11:30N 37°49' W 122°22'0 0.0
2015-Mar-28 10:30N 37°49' W 122°22'0 0.0
2015-Mar-28 09:33N 37°49' W 122°22'0 0.0
2015-Mar-28 08:28N 37°49' W 122°22'0 0.0
2015-Mar-28 07:31N 37°49' W 122°22'0 0.0
2015-Mar-28 06:25N 37°49' W 122°22'0 0.0
2015-Mar-28 05:31N 37°49' W 122°22'0 0.0
2015-Mar-28 04:34N 37°49' W 122°22'0 0.0
2015-Mar-28 03:33N 37°49' W 122°22'0 0.0
2015-Mar-28 02:30N 37°49' W 122°22'0 0.0
2015-Mar-28 01:28N 37°49' W 122°22'0 0.0
2015-Mar-28 00:30N 37°49' W 122°22'0 0.0
2015-Mar-27 23:31N 37°49' W 122°22'0 0.0
2015-Mar-27 22:31N 37°49' W 122°22'0 0.0
2015-Mar-27 21:31N 37°49' W 122°22'0 0.0
2015-Mar-27 20:31N 37°49' W 122°22'0 0.0
2015-Mar-27 19:27N 37°49' W 122°22'0 0.0
2015-Mar-27 18:31N 37°49' W 122°22'0 0.0
2015-Mar-27 17:06N 37°49' W 122°22'0 0.0
2015-Mar-27 16:28N 37°49' W 122°22'0 0.0
2015-Mar-27 15:30N 37°49' W 122°22'0 0.0
2015-Mar-27 14:28N 37°49' W 122°22'0 0.0
2015-Mar-27 13:31N 37°49' W 122°22'0 0.0
2015-Mar-27 12:31N 37°49' W 122°22'0 0.0
2015-Mar-27 11:03N 37°49' W 122°22'0 0.0
2015-Mar-27 10:28N 37°49' W 122°22'0 0.0
2015-Mar-27 09:22N 37°49' W 122°22'0 0.0
2015-Mar-27 08:22N 37°49' W 122°22'0 0.0
2015-Mar-27 07:30N 37°49' W 122°22'0 0.0
2015-Mar-27 06:30N 37°49' W 122°22'0 0.0
2015-Mar-27 05:31N 37°49' W 122°22'0 0.0
2015-Mar-27 04:33N 37°49' W 122°22'0 0.0
2015-Mar-27 03:33N 37°49' W 122°22'0 0.0
2015-Mar-27 02:33N 37°49' W 122°22'0 0.0
2015-Mar-27 01:31N 37°49' W 122°22'0 0.0
2015-Mar-27 00:31N 37°49' W 122°22'0 0.0
2015-Mar-26 23:31N 37°49' W 122°22'0 0.0
2015-Mar-26 22:31N 37°49' W 122°22'0 0.0
2015-Mar-26 21:28N 37°49' W 122°22'0 0.0
2015-Mar-26 20:33N 37°49' W 122°22'0 0.0
2015-Mar-26 19:30N 37°49' W 122°22'0 0.0
2015-Mar-26 18:30N 37°49' W 122°22'0 0.0
2015-Mar-26 17:25N 37°49' W 122°22'0 0.0
2015-Mar-26 16:31N 37°49' W 122°22'0 0.0
2015-Mar-26 15:28N 37°49' W 122°22'0 0.0
2015-Mar-26 14:25N 37°49' W 122°22'0 0.0
2015-Mar-26 13:21N 37°49' W 122°22'0 0.0
2015-Mar-26 12:33N 37°49' W 122°22'0 0.0
2015-Mar-26 11:28N 37°49' W 122°22'0 0.0
2015-Mar-26 10:31N 37°49' W 122°22'0 0.0
2015-Mar-26 09:28N 37°49' W 122°22'0 0.0
2015-Mar-26 08:10N 37°49' W 122°22'0 0.0
2015-Mar-26 07:28N 37°49' W 122°22'0 0.0
2015-Mar-26 06:31N 37°49' W 122°22'0 0.0
2015-Mar-26 05:31N 37°49' W 122°22'0 0.0
2015-Mar-26 04:31N 37°49' W 122°22'0 0.0
2015-Mar-26 03:28N 37°49' W 122°22'0 0.0
2015-Mar-26 02:10N 37°49' W 122°22'0 0.0
2015-Mar-26 01:33N 37°49' W 122°22'0 0.0
2015-Mar-26 00:25N 37°49' W 122°22'0 0.0
2015-Mar-25 23:33N 37°49' W 122°22'0 0.0
2015-Mar-25 22:28N 37°49' W 122°22'0 0.0
2015-Mar-25 21:28N 37°49' W 122°22'0 0.0
2015-Mar-25 20:22N 37°49' W 122°22'0 0.0
2015-Mar-25 19:22N 37°49' W 122°22'0 0.0
2015-Mar-25 18:31N 37°49' W 122°22'0 0.0
2015-Mar-25 17:31N 37°49' W 122°22'0 0.0
2015-Mar-25 16:28N 37°49' W 122°22'0 0.0
2015-Mar-25 15:28N 37°49' W 122°22'0 0.0
2015-Mar-25 14:28N 37°49' W 122°22'0 0.0
2015-Mar-25 13:33N 37°49' W 122°22'0 0.0
2015-Mar-25 12:31N 37°49' W 122°22'0 0.0
2015-Mar-25 11:28N 37°49' W 122°22'0 0.0
2015-Mar-25 10:31N 37°49' W 122°22'0 0.0
2015-Mar-25 09:31N 37°49' W 122°22'0 0.0
2015-Mar-25 08:28N 37°49' W 122°22'0 0.0
2015-Mar-25 07:31N 37°49' W 122°22'0 0.0
2015-Mar-25 06:31N 37°49' W 122°22'0 0.0
2015-Mar-25 05:31N 37°49' W 122°22'0 0.0
2015-Mar-25 04:33N 37°49' W 122°22'0 0.0
2015-Mar-25 03:33N 37°49' W 122°22'0 0.0
2015-Mar-25 02:30N 37°49' W 122°22'0 0.0
2015-Mar-25 01:31N 37°49' W 122°22'0 0.0
2015-Mar-25 00:31N 37°49' W 122°22'0 0.0
2015-Mar-24 23:22N 37°49' W 122°22'0 0.0
2015-Mar-24 22:28N 37°49' W 122°22'0 0.0
2015-Mar-24 21:31N 37°49' W 122°22'0 0.0
2015-Mar-24 20:31N 37°49' W 122°22'0 0.0
2015-Mar-24 19:33N 37°49' W 122°22'0 0.0
2015-Mar-24 18:31N 37°49' W 122°22'0 0.0
2015-Mar-24 17:30N 37°49' W 122°22'0 0.0
2015-Mar-24 16:31N 37°49' W 122°22'0 0.0
2015-Mar-24 15:31N 37°49' W 122°22'0 0.0
2015-Mar-24 14:31N 37°49' W 122°22'0 0.0
2015-Mar-24 13:31N 37°49' W 122°22'0 0.0
2015-Mar-24 12:28N 37°49' W 122°22'0 0.0
2015-Mar-24 11:28N 37°49' W 122°22'0 0.0
2015-Mar-24 10:33N 37°49' W 122°22'0 0.0
2015-Mar-24 09:28N 37°49' W 122°22'0 0.0
2015-Mar-24 08:31N 37°49' W 122°22'0 0.0
2015-Mar-24 07:31N 37°49' W 122°22'0 0.0
2015-Mar-24 06:31N 37°49' W 122°22'0 0.0
2015-Mar-24 05:28N 37°49' W 122°22'0 0.0
2015-Mar-24 04:28N 37°49' W 122°22'0 0.0
2015-Mar-24 03:22N 37°49' W 122°22'0 0.0
2015-Mar-24 02:31N 37°49' W 122°22'0 0.0
2015-Mar-24 01:31N 37°49' W 122°22'0 0.0
2015-Mar-24 00:28N 37°49' W 122°22'0 0.0
2015-Mar-23 23:31N 37°49' W 122°22'0 0.0
2015-Mar-23 22:30N 37°49' W 122°22'0 0.0
2015-Mar-23 21:30N 37°49' W 122°22'0 0.0
2015-Mar-23 20:31N 37°49' W 122°22'  

Dump ship's entire track history